createdAt,value
2022-09-22T00:01:33.897Z,26.87
2022-09-22T00:04:06.004Z,29.17
2022-09-22T00:06:37.055Z,23.73
2022-09-22T00:09:08.053Z,27.17
2022-09-22T00:11:37.752Z,24.67
2022-09-22T00:14:09.121Z,27.27
2022-09-22T00:16:39.452Z,25.50
2022-09-22T00:19:07.775Z,24.27
2022-09-22T00:21:35.815Z,34.20
2022-09-22T00:24:07.216Z,33.53
2022-09-22T00:26:35.970Z,39.73
2022-09-22T00:29:04.837Z,44.00
2022-09-22T00:31:32.821Z,43.10
2022-09-22T00:34:00.830Z,44.50
2022-09-22T00:36:29.457Z,47.67
2022-09-22T00:38:59.313Z,51.23
2022-09-22T00:41:30.643Z,53.03
2022-09-22T00:44:30.189Z,56.13
2022-09-22T00:47:04.222Z,54.67
2022-09-22T00:49:39.275Z,50.27
2022-09-22T00:52:07.995Z,50.47
2022-09-22T00:54:36.304Z,52.93
2022-09-22T00:57:09.181Z,64.30
2022-09-22T00:59:38.123Z,64.47
2022-09-22T01:02:06.256Z,68.50
2022-09-22T01:04:34.408Z,62.20
2022-09-22T01:07:03.589Z,58.47
2022-09-22T01:09:33.190Z,62.67
2022-09-22T01:12:01.736Z,72.47
2022-09-22T01:14:43.839Z,66.60
2022-09-22T01:17:18.877Z,69.77
2022-09-22T01:20:12.282Z,66.03
2022-09-22T01:22:57.702Z,81.20
2022-09-22T01:25:48.092Z,82.83
2022-09-22T01:28:42.940Z,79.13
2022-09-22T01:31:18.686Z,80.33
2022-09-22T01:33:52.972Z,78.87
2022-09-22T01:36:26.871Z,77.87
2022-09-22T01:39:03.983Z,97.23
2022-09-22T01:41:51.657Z,81.93
2022-09-22T01:44:27.020Z,88.10
2022-09-22T01:47:02.235Z,88.27
2022-09-22T01:49:33.504Z,90.10
2022-09-22T01:52:04.572Z,81.60
2022-09-22T01:54:35.461Z,84.57
2022-09-22T01:57:11.218Z,82.23
2022-09-22T01:59:43.169Z,83.70
2022-09-22T02:02:18.087Z,86.17
2022-09-22T02:04:49.116Z,87.10
2022-09-22T02:07:24.738Z,78.57
2022-09-22T02:09:53.884Z,75.20
2022-09-22T02:12:21.883Z,65.53
2022-09-22T02:14:50.998Z,64.57
2022-09-22T02:17:21.067Z,75.00
2022-09-22T02:19:49.056Z,74.60
2022-09-22T02:22:17.472Z,70.97
2022-09-22T02:24:47.749Z,65.03
2022-09-22T02:27:25.481Z,60.83
2022-09-22T02:29:58.891Z,61.67
2022-09-22T02:32:29.357Z,65.50
2022-09-22T02:34:58.001Z,56.20
2022-09-22T02:37:34.727Z,60.90
2022-09-22T02:40:10.060Z,60.70
2022-09-22T02:42:43.305Z,65.20
2022-09-22T02:45:16.221Z,68.17
2022-09-22T02:47:51.959Z,61.00
2022-09-22T02:50:23.729Z,52.07
2022-09-22T02:52:53.601Z,57.23
2022-09-22T02:55:21.670Z,45.20
2022-09-22T02:57:49.735Z,44.37
2022-09-22T03:00:17.759Z,45.97
2022-09-22T03:02:47.099Z,42.87
2022-09-22T03:05:15.223Z,45.93
2022-09-22T03:07:43.220Z,41.57
2022-09-22T03:10:11.908Z,48.37
2022-09-22T03:13:02.476Z,53.83
2022-09-22T03:15:30.628Z,48.33
2022-09-22T03:18:00.022Z,50.10
2022-09-22T03:20:28.118Z,49.73
2022-09-22T03:22:56.177Z,46.30
2022-09-22T03:25:24.135Z,47.90
2022-09-22T03:27:52.107Z,54.60
2022-09-22T03:30:20.358Z,40.43
2022-09-22T03:32:48.308Z,46.47
2022-09-22T03:35:17.884Z,45.77
2022-09-22T03:37:46.770Z,50.67
2022-09-22T03:40:14.986Z,42.47
2022-09-22T03:42:43.195Z,44.00
2022-09-22T03:45:13.040Z,50.53
2022-09-22T03:47:41.061Z,50.23
2022-09-22T03:50:09.928Z,48.13
2022-09-22T03:52:40.119Z,49.93
2022-09-22T03:55:09.394Z,59.23
2022-09-22T03:57:37.407Z,61.77
2022-09-22T04:00:06.389Z,69.20
2022-09-22T04:02:34.411Z,65.87
2022-09-22T04:05:02.460Z,70.20
2022-09-22T04:07:30.454Z,62.03
2022-09-22T04:09:59.770Z,49.70
2022-09-22T04:12:27.714Z,53.57
2022-09-22T04:14:55.654Z,54.40
2022-09-22T04:17:23.625Z,52.87
2022-09-22T04:19:51.619Z,61.60
2022-09-22T04:22:19.574Z,39.20
2022-09-22T04:24:47.529Z,36.80
2022-09-22T04:27:20.873Z,36.27
2022-09-22T04:29:49.609Z,43.50
2022-09-22T04:32:18.369Z,40.83
2022-09-22T04:34:46.316Z,42.53
2022-09-22T04:37:14.619Z,44.30
2022-09-22T04:39:42.819Z,37.10
2022-09-22T04:42:10.831Z,36.47
2022-09-22T04:44:40.140Z,42.90
2022-09-22T04:47:08.296Z,37.30
2022-09-22T04:49:36.250Z,39.07
2022-09-22T04:52:04.424Z,37.83
2022-09-22T04:54:32.528Z,42.30
2022-09-22T04:57:00.569Z,38.27
2022-09-22T04:59:29.580Z,37.23
2022-09-22T05:01:58.931Z,37.37
2022-09-22T05:04:26.885Z,39.73
2022-09-22T05:06:54.941Z,36.93
2022-09-22T05:09:22.927Z,37.67
2022-09-22T05:11:50.884Z,38.43
2022-09-22T05:14:24.078Z,39.17
2022-09-22T05:16:54.230Z,38.13
2022-09-22T05:19:23.646Z,36.43
2022-09-22T05:21:52.064Z,39.40
2022-09-22T05:24:20.031Z,34.90
2022-09-22T05:26:48.247Z,36.37
2022-09-22T05:29:18.274Z,34.90
2022-09-22T05:31:46.430Z,33.03
2022-09-22T05:34:14.493Z,31.80
2022-09-22T05:36:43.809Z,37.73
2022-09-22T05:39:11.784Z,29.60
2022-09-22T05:41:39.789Z,37.40
2022-09-22T05:44:07.807Z,32.33
2022-09-22T05:46:35.753Z,35.10
2022-09-22T05:49:03.715Z,32.10
2022-09-22T05:51:31.646Z,32.00
2022-09-22T05:54:01.022Z,33.33
2022-09-22T05:56:29.137Z,36.97
2022-09-22T05:58:57.055Z,38.20
2022-09-22T06:01:25.199Z,32.10
2022-09-22T06:03:53.247Z,32.97
2022-09-22T06:06:21.204Z,33.73
2022-09-22T06:08:49.385Z,31.03
2022-09-22T06:11:18.826Z,28.17
2022-09-22T06:13:48.592Z,32.03
2022-09-22T06:16:16.602Z,29.23
2022-09-22T06:18:46.726Z,27.23
2022-09-22T06:21:14.751Z,23.67
2022-09-22T06:23:43.134Z,30.17
2022-09-22T06:26:11.129Z,25.17
2022-09-22T06:28:40.432Z,28.43
2022-09-22T06:31:08.344Z,24.70
2022-09-22T06:33:36.652Z,23.37
2022-09-22T06:36:07.984Z,28.80
2022-09-22T06:38:35.959Z,26.60
2022-09-22T06:41:06.856Z,26.33
2022-09-22T06:43:37.808Z,22.87
2022-09-22T06:46:12.116Z,24.83
2022-09-22T06:48:40.319Z,27.63
2022-09-22T06:51:11.178Z,21.50
2022-09-22T06:53:40.585Z,24.60
2022-09-22T06:56:08.985Z,21.63
2022-09-22T06:58:58.586Z,23.77
2022-09-22T07:01:31.165Z,22.67
2022-09-22T07:03:59.244Z,19.30
2022-09-22T07:06:27.249Z,18.80
2022-09-22T07:08:55.217Z,21.53
2022-09-22T07:11:23.798Z,20.93
2022-09-22T07:13:53.505Z,17.63
2022-09-22T07:16:23.132Z,15.60
2022-09-22T07:18:53.673Z,18.73
2022-09-22T07:21:22.754Z,18.67
2022-09-22T07:23:52.789Z,20.43
2022-09-22T07:26:22.406Z,26.00
2022-09-22T07:28:54.020Z,22.63
2022-09-22T07:31:28.370Z,19.30
2022-09-22T07:34:00.388Z,16.07
2022-09-22T07:36:29.957Z,16.97
2022-09-22T07:38:59.797Z,16.20
2022-09-22T07:41:29.264Z,15.50
2022-09-22T07:44:20.757Z,13.43
2022-09-22T07:46:48.772Z,20.67
2022-09-22T07:49:19.669Z,15.93
2022-09-22T07:51:47.615Z,18.90
2022-09-22T07:54:15.610Z,15.00
2022-09-22T07:56:46.774Z,16.77
2022-09-22T07:59:16.775Z,21.13
2022-09-22T08:01:47.741Z,17.60
2022-09-22T08:04:18.967Z,19.93
2022-09-22T08:06:48.730Z,14.53
2022-09-22T08:09:18.319Z,15.87
2022-09-22T08:11:48.835Z,14.90
2022-09-22T08:14:18.688Z,15.90
2022-09-22T08:16:46.926Z,18.10
2022-09-22T08:19:15.700Z,14.37
2022-09-22T08:21:49.330Z,15.37
2022-09-22T08:24:21.870Z,16.07
2022-09-22T08:26:52.460Z,14.53
2022-09-22T08:29:21.051Z,13.40
2022-09-22T08:31:51.437Z,18.13
2022-09-22T08:34:22.466Z,18.53
2022-09-22T08:36:58.803Z,15.03
2022-09-22T08:39:26.754Z,16.93
2022-09-22T08:42:11.919Z,15.80
2022-09-22T08:44:46.591Z,15.33
2022-09-22T08:47:39.459Z,15.67
2022-09-22T08:50:42.835Z,18.67
2022-09-22T08:53:16.194Z,19.30
2022-09-22T08:55:48.223Z,14.48
2022-09-22T08:58:32.598Z,12.80
2022-09-22T09:01:12.739Z,16.23
2022-09-22T09:03:55.325Z,9.27
2022-09-22T09:06:33.925Z,13.23
2022-09-22T09:09:22.169Z,7.93
2022-09-22T09:12:06.048Z,5.60
2022-09-22T09:15:01.375Z,8.52
2022-09-22T09:17:31.573Z,6.50
2022-09-22T09:20:04.783Z,6.18
2022-09-22T09:22:43.690Z,6.75
2022-09-22T09:25:23.325Z,7.38
2022-09-22T09:27:57.206Z,5.57
2022-09-22T09:30:25.327Z,6.57
2022-09-22T09:32:56.420Z,6.07
2022-09-22T09:35:28.506Z,10.15
2022-09-22T09:37:59.155Z,8.98
2022-09-22T09:40:29.006Z,8.15
2022-09-22T09:43:03.262Z,7.07
2022-09-22T09:45:38.370Z,6.72
2022-09-22T09:48:20.373Z,5.13
2022-09-22T09:50:48.342Z,6.07
2022-09-22T09:53:31.247Z,7.05
2022-09-22T09:56:00.611Z,6.47
2022-09-22T09:58:46.241Z,6.38
2022-09-22T10:04:33.255Z,5.13
2022-09-22T10:07:12.910Z,5.82
2022-09-22T10:09:41.517Z,10.15
2022-09-22T10:12:23.633Z,8.70
2022-09-22T10:14:52.851Z,9.70
2022-09-22T10:17:22.767Z,5.15
2022-09-22T10:19:51.701Z,6.25
2022-09-22T10:22:28.286Z,4.88
2022-09-22T10:25:01.443Z,5.82
2022-09-22T10:27:32.595Z,6.65
2022-09-22T10:30:37.189Z,4.97
2022-09-22T10:33:15.435Z,9.70
2022-09-22T10:35:45.634Z,10.20
2022-09-22T10:38:24.759Z,4.75
2022-09-22T10:40:57.896Z,7.18
2022-09-22T10:43:44.110Z,8.98
2022-09-22T10:46:45.310Z,5.15
2022-09-22T10:49:21.211Z,8.30
2022-09-22T10:52:05.300Z,5.30
2022-09-22T10:54:50.295Z,6.95
2022-09-22T10:57:33.753Z,8.93
2022-09-22T11:00:12.325Z,22.15
2022-09-22T11:03:06.543Z,7.38
2022-09-22T11:06:01.385Z,5.57
2022-09-22T11:08:53.356Z,7.95
2022-09-22T11:11:45.351Z,4.18
2022-09-22T11:14:27.889Z,5.38
2022-09-22T11:17:17.794Z,8.57
2022-09-22T11:20:08.865Z,10.15
2022-09-22T11:22:58.933Z,10.90
2022-09-22T11:25:43.399Z,11.33
2022-09-22T11:28:35.936Z,11.43
2022-09-22T11:31:04.012Z,13.00
2022-09-22T11:34:12.260Z,6.72
2022-09-22T11:36:51.565Z,8.35
2022-09-22T11:39:22.066Z,8.10
2022-09-22T11:42:01.175Z,6.40
2022-09-22T11:44:36.849Z,8.68
2022-09-22T11:47:41.591Z,10.35
2022-09-22T11:50:27.544Z,4.80
2022-09-22T11:53:09.509Z,7.90
2022-09-22T11:55:40.977Z,8.57
2022-09-22T11:58:16.217Z,12.38
2022-09-22T12:00:48.674Z,7.03
2022-09-22T12:03:21.327Z,10.73
2022-09-22T12:05:54.993Z,10.20
2022-09-22T12:08:26.791Z,9.13
2022-09-22T12:10:55.298Z,7.45
2022-09-22T12:13:26.402Z,11.73
2022-09-22T12:18:41.663Z,11.13
2022-09-22T12:21:25.466Z,11.85
2022-09-22T12:23:56.121Z,9.38
2022-09-22T12:26:28.442Z,12.98
2022-09-22T12:28:58.808Z,9.10
2022-09-22T12:31:36.039Z,8.63
2022-09-22T12:34:06.790Z,9.75
2022-09-22T12:36:38.263Z,9.90
2022-09-22T12:39:13.302Z,19.77
2022-09-22T12:41:48.023Z,10.50
2022-09-22T12:44:21.127Z,16.85
2022-09-22T12:46:50.294Z,12.77
2022-09-22T12:49:22.537Z,9.63
2022-09-22T12:51:52.452Z,19.50
2022-09-22T12:54:47.894Z,10.07
2022-09-22T12:57:31.323Z,13.73
2022-09-22T13:00:23.124Z,10.00
2022-09-22T13:02:51.603Z,8.52
2022-09-22T13:05:46.530Z,8.60
2022-09-22T13:08:24.094Z,11.93
2022-09-22T13:11:01.150Z,10.50
2022-09-22T13:13:41.106Z,10.13
2022-09-22T13:16:34.562Z,10.88
2022-09-22T13:19:03.549Z,9.30
2022-09-22T13:21:33.415Z,10.20
2022-09-22T13:24:05.082Z,11.33
2022-09-22T13:26:34.889Z,6.20
2022-09-22T13:29:11.390Z,7.23
2022-09-22T13:31:44.609Z,4.50
2022-09-22T13:34:26.523Z,5.90
2022-09-22T13:36:58.223Z,7.97
2022-09-22T13:39:30.774Z,6.47
2022-09-22T13:42:04.534Z,5.80
2022-09-22T13:44:35.848Z,8.63
2022-09-22T13:47:08.217Z,6.73
2022-09-22T13:49:42.244Z,7.90
2022-09-22T13:52:16.323Z,6.97
2022-09-22T13:54:49.545Z,9.73
2022-09-22T13:57:22.392Z,7.80
2022-09-22T13:59:52.590Z,9.03
2022-09-22T14:02:28.092Z,6.63
2022-09-22T14:05:01.605Z,9.63
2022-09-22T14:07:38.342Z,6.87
2022-09-22T14:10:19.358Z,7.50
2022-09-22T14:12:47.431Z,8.23
2022-09-22T14:15:39.699Z,9.07
2022-09-22T14:18:18.877Z,8.20
2022-09-22T14:20:47.732Z,8.53
2022-09-22T14:23:27.941Z,8.67
2022-09-22T14:25:58.802Z,10.20
2022-09-22T14:28:29.697Z,8.75
2022-09-22T14:30:57.864Z,7.45
2022-09-22T14:33:27.696Z,9.48
2022-09-22T14:36:01.760Z,11.82
2022-09-22T14:38:34.380Z,10.57
2022-09-22T14:41:04.341Z,8.38
2022-09-22T14:43:37.857Z,9.60
2022-09-22T14:46:24.603Z,10.45
2022-09-22T14:48:52.893Z,9.48
2022-09-22T14:51:23.016Z,10.13
2022-09-22T14:53:55.427Z,10.35
2022-09-22T14:56:28.919Z,10.27
2022-09-22T14:59:00.149Z,10.13
2022-09-22T15:01:49.784Z,8.82
2022-09-22T15:04:23.139Z,8.05
2022-09-22T15:06:52.678Z,10.57
2022-09-22T15:09:25.883Z,8.20
2022-09-22T15:11:56.938Z,8.77
2022-09-22T15:14:35.301Z,9.55
2022-09-22T15:17:17.527Z,8.25
2022-09-22T15:19:45.496Z,8.73
2022-09-22T15:22:15.060Z,7.43
2022-09-22T15:24:43.097Z,7.72
2022-09-22T15:27:17.714Z,7.93
2022-09-22T15:29:45.768Z,10.65
2022-09-22T15:32:14.187Z,8.07
2022-09-22T15:34:44.759Z,8.95
2022-09-22T15:37:15.657Z,9.17
2022-09-22T15:39:43.763Z,9.03
2022-09-22T15:42:12.300Z,9.10
2022-09-22T15:44:42.030Z,8.60
2022-09-22T15:47:16.576Z,11.83
2022-09-22T15:49:45.122Z,7.77
2022-09-22T15:52:14.301Z,10.43
2022-09-22T15:54:44.156Z,10.07
2022-09-22T15:57:14.931Z,9.73
2022-09-22T15:59:44.310Z,5.93
2022-09-22T16:02:12.910Z,7.73
2022-09-22T16:04:40.856Z,11.33
2022-09-22T16:07:12.397Z,13.03
2022-09-22T16:09:40.494Z,14.47
2022-09-22T16:12:11.065Z,9.17
2022-09-22T16:14:39.908Z,10.13
2022-09-22T16:17:09.212Z,10.53
2022-09-22T16:19:37.160Z,7.30
2022-09-22T16:22:05.898Z,10.50
2022-09-22T16:24:33.915Z,8.00
2022-09-22T16:27:06.033Z,8.90
2022-09-22T16:29:37.395Z,10.90
2022-09-22T16:32:05.571Z,12.30
2022-09-22T16:34:35.986Z,13.53
2022-09-22T16:37:04.062Z,13.40
2022-09-22T16:39:32.021Z,11.17
2022-09-22T16:41:59.971Z,11.80
2022-09-22T16:44:27.958Z,14.93
2022-09-22T16:46:56.483Z,12.37
2022-09-22T16:49:25.068Z,14.40
2022-09-22T16:51:55.102Z,13.27
2022-09-22T16:54:24.704Z,15.67
2022-09-22T16:56:53.859Z,18.50
2022-09-22T16:59:24.129Z,20.00
2022-09-22T17:01:52.395Z,20.87
2022-09-22T17:04:20.791Z,21.97
2022-09-22T17:06:49.587Z,26.37
2022-09-22T17:09:19.374Z,27.47
2022-09-22T17:11:49.193Z,28.07
2022-09-22T17:14:21.090Z,28.37
2022-09-22T17:16:52.047Z,26.33
2022-09-22T17:19:22.114Z,32.70
2022-09-22T17:21:52.780Z,31.73
2022-09-22T17:24:22.997Z,30.03
2022-09-22T17:26:53.197Z,35.53
2022-09-22T17:29:23.404Z,34.97
2022-09-22T17:31:52.127Z,34.93
2022-09-22T17:34:20.079Z,41.83
2022-09-22T17:36:48.017Z,34.27
2022-09-22T17:39:15.956Z,40.77
2022-09-22T17:41:47.011Z,36.93
2022-09-22T17:44:17.030Z,36.63
2022-09-22T17:46:58.926Z,35.83
2022-09-22T17:49:44.189Z,31.53
2022-09-22T17:52:30.072Z,28.63
2022-09-22T17:55:08.185Z,31.00
2022-09-22T17:57:39.190Z,27.57
2022-09-22T18:00:09.535Z,25.40
2022-09-22T18:02:38.823Z,27.00
2022-09-22T18:05:08.079Z,21.87
2022-09-22T18:07:38.218Z,26.13
2022-09-22T18:10:07.031Z,19.70
2022-09-22T18:12:35.584Z,18.87
2022-09-22T18:15:05.800Z,18.60
2022-09-22T18:17:41.525Z,20.47
2022-09-22T18:20:11.818Z,22.57
2022-09-22T18:22:40.176Z,21.77
2022-09-22T18:25:10.505Z,22.23
2022-09-22T18:27:40.086Z,26.43
2022-09-22T18:30:14.239Z,22.57
2022-09-22T18:32:43.993Z,23.70
2022-09-22T18:35:12.970Z,25.57
2022-09-22T18:37:41.750Z,25.77
2022-09-22T18:40:12.459Z,25.47
2022-09-22T18:42:41.509Z,24.93
2022-09-22T18:45:12.503Z,28.13
2022-09-22T18:47:40.928Z,31.43
2022-09-22T18:50:10.122Z,32.93
2022-09-22T18:52:42.598Z,43.83
2022-09-22T18:55:17.263Z,54.40
2022-09-22T18:57:47.389Z,52.80
2022-09-22T19:00:20.871Z,47.40
2022-09-22T19:02:49.123Z,48.77
2022-09-22T19:05:17.406Z,49.30
2022-09-22T19:07:47.730Z,48.67
2022-09-22T19:10:20.526Z,47.93
2022-09-22T19:12:48.636Z,40.03
2022-09-22T19:15:19.435Z,41.43
2022-09-22T19:17:49.612Z,39.40
2022-09-22T19:20:21.045Z,34.90
2022-09-22T19:22:50.515Z,39.00
2022-09-22T19:25:20.074Z,38.20
2022-09-22T19:27:48.073Z,36.43
2022-09-22T19:30:21.816Z,42.73
2022-09-22T19:32:51.073Z,42.67
2022-09-22T19:35:19.593Z,41.93
2022-09-22T19:37:47.566Z,37.93
2022-09-22T19:40:18.667Z,36.80
2022-09-22T19:42:47.683Z,37.60
2022-09-22T19:45:17.162Z,34.10
2022-09-22T19:47:45.103Z,38.30
2022-09-22T19:50:13.195Z,40.60
2022-09-22T19:52:41.136Z,39.83
2022-09-22T19:55:11.516Z,44.17
2022-09-22T19:57:41.329Z,50.73
2022-09-22T20:00:10.821Z,51.97
2022-09-22T20:02:40.157Z,57.13
2022-09-22T20:05:19.001Z,58.43
2022-09-22T20:07:46.935Z,55.13
2022-09-22T20:10:15.035Z,55.13
2022-09-22T20:12:42.998Z,53.70
2022-09-22T20:15:14.888Z,48.43
2022-09-22T20:17:45.998Z,46.77
2022-09-22T20:20:14.665Z,48.87
2022-09-22T20:22:42.747Z,47.37
2022-09-22T20:25:22.517Z,51.57
2022-09-22T20:27:50.972Z,53.43
2022-09-22T20:30:19.315Z,59.23
2022-09-22T20:32:48.982Z,56.33
2022-09-22T20:35:19.106Z,59.83
2022-09-22T20:37:47.267Z,58.50
2022-09-22T20:40:18.637Z,60.93
2022-09-22T20:42:47.009Z,59.80
2022-09-22T20:45:15.443Z,63.57
2022-09-22T20:47:43.532Z,59.33
2022-09-22T20:50:13.381Z,57.00
2022-09-22T20:52:42.506Z,60.60
2022-09-22T20:55:11.728Z,64.00
2022-09-22T20:57:40.328Z,69.83
2022-09-22T21:00:09.914Z,69.13
2022-09-22T21:02:38.864Z,72.20
2022-09-22T21:05:07.288Z,80.30
2022-09-22T21:07:36.763Z,65.87
2022-09-22T21:10:22.844Z,70.47
2022-09-22T21:12:55.001Z,74.83
2022-09-22T21:15:23.318Z,66.80
2022-09-22T21:17:52.718Z,66.60
2022-09-22T21:20:21.624Z,69.77
2022-09-22T21:22:52.280Z,69.20
2022-09-22T21:25:20.397Z,67.83
2022-09-22T21:27:48.521Z,67.47
2022-09-22T21:30:16.753Z,57.67
2022-09-22T21:32:45.047Z,59.70
2022-09-22T21:35:16.750Z,59.47
2022-09-22T21:37:45.107Z,60.30
2022-09-22T21:40:14.758Z,56.70
2022-09-22T21:42:42.867Z,60.57
2022-09-22T21:45:12.938Z,52.40
2022-09-22T21:47:41.043Z,49.20
2022-09-22T21:50:10.118Z,51.47
2022-09-22T21:52:38.574Z,51.37
2022-09-22T21:55:07.712Z,51.50
2022-09-22T21:57:37.072Z,53.43
2022-09-22T22:00:07.105Z,45.13
2022-09-22T22:02:55.062Z,50.23
2022-09-22T22:05:23.006Z,52.60
2022-09-22T22:07:51.049Z,46.07
2022-09-22T22:10:19.206Z,50.30
2022-09-22T22:12:48.551Z,45.93
2022-09-22T22:15:16.619Z,48.63
2022-09-22T22:17:44.631Z,48.07
2022-09-22T22:20:12.587Z,44.33
2022-09-22T22:22:40.532Z,49.47
2022-09-22T22:25:13.706Z,45.53
2022-09-22T22:27:44.659Z,46.67
2022-09-22T22:30:14.593Z,49.07
2022-09-22T22:32:43.131Z,50.93
2022-09-22T22:35:11.688Z,45.90
2022-09-22T22:37:39.945Z,47.20
2022-09-22T22:40:08.848Z,50.77
2022-09-22T22:42:36.880Z,47.43
2022-09-22T22:45:06.565Z,47.30
2022-09-22T22:47:35.892Z,49.10
2022-09-22T22:50:03.826Z,44.70
2022-09-22T22:52:31.783Z,44.93
2022-09-22T22:54:59.731Z,47.57
2022-09-22T22:57:28.623Z,47.80
2022-09-22T22:59:57.123Z,47.57
2022-09-22T23:02:25.681Z,45.80
2022-09-22T23:04:58.646Z,48.47
2022-09-22T23:07:26.658Z,52.70
2022-09-22T23:10:06.282Z,45.90
2022-09-22T23:12:35.142Z,49.33
2022-09-22T23:15:03.290Z,47.53
2022-09-22T23:17:32.034Z,46.97
2022-09-22T23:20:01.358Z,40.20
2022-09-22T23:22:30.592Z,41.63
2022-09-22T23:24:58.723Z,40.47
2022-09-22T23:27:27.193Z,39.83
2022-09-22T23:29:57.199Z,41.33
2022-09-22T23:32:25.588Z,38.13
2022-09-22T23:34:53.782Z,43.83
2022-09-22T23:37:24.834Z,42.23
2022-09-22T23:39:53.107Z,37.07
2022-09-22T23:42:21.076Z,40.23
2022-09-22T23:44:49.140Z,31.90
2022-09-22T23:47:17.147Z,34.37
2022-09-22T23:49:45.721Z,33.93
2022-09-22T23:52:13.696Z,31.90
2022-09-22T23:54:44.274Z,31.47
2022-09-22T23:57:12.230Z,31.87
2022-09-22T23:59:40.180Z,34.67
